»·PEaware :: N3891R KONT-KOXR

N3891R :: KONT-KOXR

FLIGHT INFORMATION

Flight Status: Arrived
Operator: Privately registered:
United States
More flights under this callsign
Pilot: Markus B. (22479)
Aircraft: BEECH AIRCRAFT BARON
(BE58)
More flights by this aircraft type
Origin: KONT Ontario Intl
United States
Destination: KOXR Oxnard
United States
More flights between these airports :: More routes between these airports
Route: +PDZ V186 FIM
File this flight plan on PilotEdge
Remarks: ONTP14
Altitude:
(Current/Filed)
6,000ft
Speed:
(Current/Filed)
180kts
Departed: 22-Mar-20 10:04 AM
Arrived: 22-Mar-20 10:34 AM
Distance/Time
Traveled:
80nm/0:30
Distance/Time
To Go:
Arrived

Flight Plot

Page will automatically refresh every two minutes.


Map Options




Map Legend


Flown Route
Filed Route
Departure Airport
Arrival Airport
Navaid (VOR, NDB)
Fix

Horizontal Profiles

Position Reports

Time Latitude Longitude Heading Altitude Ground
Speed
22-Mar-20 09:40 34.050542 -117.603919 53 908ft 0kts
22-Mar-20 09:40 34.050542 -117.603919 53 908ft 0kts
22-Mar-20 09:42 34.050542 -117.603919 53 908ft 0kts
22-Mar-20 09:43 34.050542 -117.603919 53 908ft 0kts
22-Mar-20 09:43 34.050542 -117.603919 53 908ft 0kts
22-Mar-20 09:44 34.050542 -117.603919 53 908ft 0kts
22-Mar-20 09:46 34.050542 -117.603919 53 908ft 0kts
22-Mar-20 09:47 34.050542 -117.603919 53 908ft 0kts
22-Mar-20 09:47 34.050542 -117.603919 53 908ft 0kts
22-Mar-20 09:48 34.050542 -117.603919 53 908ft 0kts
22-Mar-20 09:49 34.050542 -117.603919 53 908ft 0kts
22-Mar-20 09:50 34.050542 -117.603919 53 908ft 0kts
22-Mar-20 09:51 34.050542 -117.603919 53 908ft 0kts
22-Mar-20 09:52 34.050542 -117.603919 53 908ft 0kts
22-Mar-20 09:53 34.050542 -117.603919 53 908ft 0kts
22-Mar-20 09:54 34.050542 -117.603919 53 908ft 0kts
22-Mar-20 09:55 34.051030 -117.603651 12 909ft 11kts
22-Mar-20 09:56 34.053343 -117.602171 86 914ft 0kts
22-Mar-20 09:57 34.053854 -117.602012 87 916ft 15kts
22-Mar-20 09:58 34.053881 -117.593733 89 915ft 28kts
22-Mar-20 09:59 34.053836 -117.583829 90 915ft 29kts
22-Mar-20 10:00 34.054015 -117.582625 35 917ft 0kts
22-Mar-20 10:01 34.054015 -117.582625 35 917ft 0kts
22-Mar-20 10:02 34.054801 -117.582666 312 921ft 15kts
22-Mar-20 10:03 34.053902 -117.614064 265 1484ft 127kts
22-Mar-20 10:04 34.052683 -117.656590 267 3002ft 120kts
22-Mar-20 10:05 34.051678 -117.697401 267 4016ft 148kts
22-Mar-20 10:06 34.050396 -117.752507 267 4464ft 154kts
22-Mar-20 10:07 34.049289 -117.797773 268 5794ft 134kts
22-Mar-20 10:08 34.048030 -117.850899 268 5852ft 173kts
22-Mar-20 10:09 34.046615 -117.910820 268 5784ft 181kts
22-Mar-20 10:10 34.062697 -117.967855 290 5801ft 179kts
22-Mar-20 10:11 34.080927 -118.024292 291 5786ft 180kts
22-Mar-20 10:12 34.099271 -118.080557 291 5782ft 180kts
22-Mar-20 10:13 34.117629 -118.136972 291 5791ft 180kts
22-Mar-20 10:14 34.135951 -118.193374 291 5804ft 181kts
22-Mar-20 10:15 34.154463 -118.250506 291 5796ft 183kts
22-Mar-20 10:16 34.173150 -118.308228 291 5791ft 184kts
22-Mar-20 10:17 34.191772 -118.365880 291 5789ft 184kts
22-Mar-20 10:18 34.210343 -118.423483 291 5790ft 184kts
22-Mar-20 10:19 34.228956 -118.481327 291 5790ft 184kts
22-Mar-20 10:20 34.247545 -118.539206 291 5790ft 184kts
22-Mar-20 10:21 34.266071 -118.596998 291 5790ft 184kts
22-Mar-20 10:22 34.271757 -118.659398 260 5194ft 198kts
22-Mar-20 10:23 34.263191 -118.724994 260 4829ft 190kts
22-Mar-20 10:24 34.255101 -118.786885 260 4842ft 184kts
22-Mar-20 10:25 34.247104 -118.848197 260 4846ft 184kts
22-Mar-20 10:26 34.239193 -118.908966 260 4844ft 182kts
22-Mar-20 10:27 34.231324 -118.969429 261 4846ft 182kts
22-Mar-20 10:28 34.223441 -119.027183 257 3990ft 172kts
22-Mar-20 10:29 34.212700 -119.083944 257 2903ft 172kts
22-Mar-20 10:30 34.203320 -119.133349 257 1766ft 125kts
22-Mar-20 10:31 34.200410 -119.170189 268 568ft 96kts
22-Mar-20 10:32 34.200679 -119.200021 274 43ft 69kts
22-Mar-20 10:33 34.199776 -119.203294 220 40ft 0kts
22-Mar-20 10:34 34.199772 -119.203297 214 40ft 1kts
22-Mar-20 10:35 34.199698 -119.199460 106 43ft 11kts

Navigation Log

Ident Type
Flight plan parsing failed, navigation log unavailable